• Join FlightAware (Why Join?)
  • Login
  • US Flag 
10:43PM EDT


 

Airport Tracker/Info


-or-


 

Live Flight TrackerFlight Track Log ✈ JBU56 ✈ 20-Jul-2013 ✈ KIAD - KBOS

Flight Track Log - Related Links

Times and Time Zones

All times are in EDT time to prevent confusion due to time zone crossing. See the JBU56 flight status page for this flight to view local times or setup timezone preferences in your user account.

Time Position Orientation Groundspeed Altitude Reporting Facility
EDT Latitude Longitude Course Direction KTS MPH feet Rate Location/Type
09:10AM 38.9667 -77.5167 74° East 162 186 2,000  Level Potomac TRACON
09:11AM 39.0000 -77.5667 311° West 201 231 4,100 2,100 Climbing Potomac TRACON
09:12AM 39.0306 -76.9485 77° East  Level FlightAware Approximate
09:12AM 39.0500 -77.5667 360° North 266 306 6,300  Level Potomac TRACON
09:13AM 39.0527 -76.8174 78° East  Level FlightAware Approximate
09:13AM 39.1167 -77.5000 38° Northeast 300 345 9,000  Level Potomac TRACON
09:14AM 39.0667 -76.6849 90° East  Level FlightAware Approximate
09:14AM 39.1500 -77.4000 67° East 331 381 10,000  Level Potomac TRACON
09:15AM 39.0854 -76.5573 74° East  Level FlightAware Approximate
09:15AM 39.1167 -77.2833 110° East 365 420 11,000  Level Potomac TRACON
09:17AM 39.0839 -77.0436 100° East 377 434 15,200 2,220 Climbing Washington Center
09:18AM 39.0961 -76.8967 84° East 390 449 17,400 2,160 Climbing Washington Center
09:19AM 39.1078 -76.7497 84° East 403 464 19,600 1,980 Climbing Washington Center
09:20AM 39.1217 -76.6003 83° East 415 478 21,400 1,560 Climbing Washington Center
09:21AM 39.1333 -76.4425 85° East 427 491 22,800 780 Climbing Washington Center
09:22AM 39.1447 -76.2819 85° East 439 505 23,000 60 Climbing Washington Center
09:23AM 39.1622 -76.1403 81° East 439 505 23,000  Level Washington Center
09:24AM 39.1794 -75.9853 82° East 439 505 23,000 240 Level Washington Center
09:25AM 39.2236 -75.8408 68° East 444 511 23,500 780 Climbing Washington Center
09:26AM 39.3114 -75.7258 45° Northeast 427 491 24,600 1,080 Climbing Washington Center
09:27AM 39.3989 -75.6131 45° Northeast 438 504 25,700 960 Climbing Washington Center
09:28AM 39.4906 -75.4975 44° Northeast 444 511 26,600 1,020 Climbing Washington Center
09:29AM 39.6717 -75.2589 45° Northeast 464 534 28,700 1,200 Climbing New York Center
09:30AM 39.7511 -75.1422 48° Northeast 464 534 30,100 1,140 Climbing New York Center
09:31AM 39.8392 -75.0153 48° Northeast 464 534 31,000 420 Climbing New York Center
09:32AM 39.9292 -74.8856 48° Northeast 476 548 31,000  Level New York Center
09:33AM 40.0217 -74.7392 50° Northeast 482 555 31,000  Level New York Center
09:34AM 40.1028 -74.6189 49° Northeast 490 564 31,000  Level New York Center
09:35AM 40.1906 -74.4825 50° Northeast 490 564 31,000  Level New York Center
09:36AM 40.2781 -74.3483 49° Northeast 490 564 31,000  Level New York Center
09:39AM 40.5142 -73.9906 49° Northeast 487 560 31,000 -60 Level Boston Center
09:40AM 40.6014 -73.8533 50° Northeast 487 560 30,900 -1,200 Descending Boston Center
09:41AM 40.6883 -73.7156 50° Northeast 487 560 28,600 -2,340 Descending Boston Center
09:42AM 40.7586 -73.5908 53° Northeast 487 560 26,300 -2,340 Descending Boston Center
09:43AM 40.8411 -73.4633 49° Northeast 467 537 24,000 -1,200 Descending Boston Center
09:44AM 40.9233 -73.3383 49° Northeast 456 525 24,000 -360 Level Boston Center
09:45AM 41.0119 -73.2186 46° Northeast 451 519 23,300 -540 Descending Boston Center
09:46AM 41.0917 -73.0956 49° Northeast 441 507 23,000 -180 Descending Boston Center
09:47AM 41.1736 -72.9722 49° Northeast 441 507 23,000  Level Boston Center
09:48AM 41.2450 -72.8403 54° Northeast 441 507 23,000  Level Boston Center
09:49AM 41.3039 -72.6889 63° Northeast 441 507 23,000  Level Boston Center
09:50AM 41.3564 -72.5369 65° Northeast 441 507 23,000  Level Boston Center
09:51AM 41.4083 -72.3875 65° Northeast 441 507 23,000  Level Boston Center
09:52AM 41.4625 -72.2433 63° Northeast 441 507 23,000  Level Boston Center
09:53AM 41.5161 -72.0936 64° Northeast 441 507 23,000  Level Boston Center
09:54AM 41.5678 -71.9461 65° Northeast 441 507 23,000 -600 Level Boston Center
09:55AM 41.6089 -71.8239 66° East 441 507 21,800 -2,100 Descending Boston Center
09:56AM 41.6744 -71.6369 65° Northeast 436 502 18,900 -2,580 Descending Boston Center
09:57AM 41.7275 -71.4917 64° Northeast 436 502 16,700 -2,160 Descending Boston Center
09:58AM 41.7700 -71.3683 65° Northeast 415 478 14,600 -2,220 Descending Boston Center
09:59AM 41.8208 -71.2228 65° Northeast 397 457 12,300 -1,800 Descending Boston Center
10:00AM 41.8631 -71.1047 64° Northeast 391 450 11,000 -660 Descending Boston Center
10:01AM 41.9333 -70.9500 59° Northeast 385 443 11,000  Level KA90
10:02AM 41.9833 -70.8333 60° Northeast 386 444 11,000 -420 Level KA90
10:03AM 42.0333 -70.7333 56° Northeast 341 392 10,300 -1,260 Descending KA90
10:04AM 42.1000 -70.6333 48° Northeast 335 386 8,400 -1,620 Descending KA90
10:05AM 42.1833 -70.6000 17° North 309 356 7,000 -1,620 Descending KA90
10:06AM 42.2667 -70.5833 North 289 333 5,200 -1,740 Descending KA90
10:07AM 42.3167 -70.6167 334° Northwest 261 300 3,700 -1,200 Descending KA90
10:08AM 42.3833 -70.6667 331° Northwest 244 281 3,000 -360 Descending KA90
10:09AM 42.4000 -70.7500 285° West 205 236 3,000 -360 Level KA90
10:10AM 42.3833 -70.8167 251° West 201 231 2,300 -840 Descending KA90
10:11AM 42.3833 -70.8833 270° West 178 205 1,400 -840 Descending KA90
10:12AM 42.3667 -70.9500 251° West 139 160 600 -780 Descending KA90